createdAt,value
2018-12-09T00:02:05.596Z,1.50
2018-12-09T00:04:34.492Z,1.57
2018-12-09T00:07:03.753Z,3.05
2018-12-09T00:09:32.048Z,1.17
2018-12-09T00:12:00.310Z,2.12
2018-12-09T00:14:28.469Z,2.58
2018-12-09T00:16:56.961Z,2.02
2018-12-09T00:19:25.247Z,4.20
2018-12-09T00:21:53.492Z,2.47
2018-12-09T00:24:21.653Z,3.00
2018-12-09T00:26:49.871Z,1.95
2018-12-09T00:29:18.004Z,2.80
2018-12-09T00:31:47.041Z,2.98
2018-12-09T00:34:15.242Z,4.83
2018-12-09T00:36:43.889Z,1.47
2018-12-09T00:39:11.960Z,6.20
2018-12-09T00:41:40.031Z,4.65
2018-12-09T00:44:08.172Z,5.90
2018-12-09T00:46:36.331Z,7.87
2018-12-09T00:49:04.479Z,6.30
2018-12-09T00:51:32.699Z,3.02
2018-12-09T00:54:01.006Z,8.75
2018-12-09T00:56:29.181Z,10.20
2018-12-09T00:58:57.261Z,4.90
2018-12-09T01:01:25.424Z,4.25
2018-12-09T01:03:53.938Z,5.37
2018-12-09T01:06:22.011Z,8.63
2018-12-09T01:08:50.094Z,9.38
2018-12-09T01:11:18.157Z,6.85
2018-12-09T01:13:46.265Z,5.42
2018-12-09T01:16:14.905Z,5.90
2018-12-09T01:18:43.001Z,7.67
2018-12-09T01:21:11.157Z,9.58
2018-12-09T01:23:39.281Z,10.10
2018-12-09T01:26:07.406Z,8.18
2018-12-09T01:28:35.579Z,5.60
2018-12-09T01:31:03.834Z,8.50
2018-12-09T01:33:32.019Z,6.70
2018-12-09T01:36:00.774Z,9.10
2018-12-09T01:38:28.895Z,10.85
2018-12-09T01:40:57.256Z,9.80
2018-12-09T01:43:25.426Z,5.40
2018-12-09T01:45:53.598Z,7.50
2018-12-09T01:48:21.832Z,7.70
2018-12-09T01:50:49.999Z,5.60
2018-12-09T01:53:29.689Z,5.72
2018-12-09T01:55:57.880Z,7.40
2018-12-09T01:58:25.968Z,6.17
2018-12-09T02:00:54.152Z,7.78
2018-12-09T02:03:22.445Z,5.83
2018-12-09T02:05:50.535Z,7.03
2018-12-09T02:08:18.646Z,8.70
2018-12-09T02:10:46.930Z,7.45
2018-12-09T02:13:15.296Z,10.30
2018-12-09T02:15:43.533Z,8.75
2018-12-09T02:18:11.784Z,14.73
2018-12-09T02:20:40.012Z,7.28
2018-12-09T02:23:08.193Z,10.68
2018-12-09T02:25:36.381Z,9.83
2018-12-09T02:28:04.535Z,6.33
2018-12-09T02:30:32.703Z,5.42
2018-12-09T02:33:00.930Z,9.58
2018-12-09T02:35:30.187Z,4.30
2018-12-09T02:37:58.338Z,9.45
2018-12-09T02:40:26.490Z,3.65
2018-12-09T02:42:54.644Z,2.02
2018-12-09T02:45:22.801Z,6.33
2018-12-09T02:47:50.989Z,4.30
2018-12-09T02:50:19.144Z,2.40
2018-12-09T02:52:47.277Z,2.75
2018-12-09T02:55:15.433Z,1.30
2018-12-09T02:57:43.921Z,6.72
2018-12-09T03:00:12.627Z,1.00
2018-12-09T03:02:40.810Z,2.47
2018-12-09T03:05:09.003Z,2.27
2018-12-09T03:07:37.220Z,3.52
2018-12-09T03:10:05.863Z,3.30
2018-12-09T03:12:34.013Z,8.63
2018-12-09T03:15:02.187Z,7.12
2018-12-09T03:17:30.343Z,6.00
2018-12-09T03:19:58.506Z,4.33
2018-12-09T03:22:26.730Z,3.55
2018-12-09T03:24:54.909Z,3.47
2018-12-09T03:27:23.045Z,2.87
2018-12-09T03:29:51.130Z,4.92
2018-12-09T03:32:19.801Z,2.20
2018-12-09T03:34:48.113Z,2.10
2018-12-09T03:37:16.215Z,3.62
2018-12-09T03:39:44.625Z,4.60
2018-12-09T03:42:12.877Z,3.42
2018-12-09T03:44:41.010Z,2.83
2018-12-09T03:47:09.187Z,7.33
2018-12-09T03:49:37.354Z,3.75
2018-12-09T03:52:05.585Z,7.15
2018-12-09T03:54:33.821Z,2.35
2018-12-09T03:57:02.050Z,2.83
2018-12-09T03:59:30.289Z,8.13
2018-12-09T04:01:58.498Z,3.52
2018-12-09T04:04:26.724Z,1.95
2018-12-09T04:06:54.885Z,4.60
2018-12-09T04:09:23.053Z,1.80
2018-12-09T04:11:51.239Z,2.77
2018-12-09T04:14:19.422Z,2.92
2018-12-09T04:16:47.871Z,3.17
2018-12-09T04:19:16.407Z,4.80
2018-12-09T04:21:44.565Z,5.05
2018-12-09T04:24:19.658Z,1.67
2018-12-09T04:26:47.866Z,2.90
2018-12-09T04:29:15.965Z,2.75
2018-12-09T04:31:44.216Z,3.08
2018-12-09T04:34:12.877Z,2.87
2018-12-09T04:36:41.104Z,1.45
2018-12-09T04:39:09.242Z,0.80
2018-12-09T04:41:37.866Z,1.92
2018-12-09T04:44:06.147Z,2.62
2018-12-09T04:46:34.322Z,5.05
2018-12-09T04:49:02.480Z,2.67
2018-12-09T04:51:42.136Z,2.27
2018-12-09T04:54:10.265Z,3.22
2018-12-09T04:56:38.350Z,2.00
2018-12-09T04:59:18.026Z,2.50
2018-12-09T05:01:46.501Z,3.87
2018-12-09T05:04:15.078Z,4.72
2018-12-09T05:06:43.356Z,1.92
2018-12-09T05:09:11.507Z,2.83
2018-12-09T05:11:39.728Z,3.47
2018-12-09T05:14:07.909Z,1.15
2018-12-09T05:16:36.078Z,5.30
2018-12-09T05:19:04.281Z,5.20
2018-12-09T05:21:32.417Z,4.58
2018-12-09T05:24:00.537Z,5.85
2018-12-09T05:26:28.725Z,1.12
2018-12-09T05:28:56.905Z,2.45
2018-12-09T05:31:25.057Z,3.80
2018-12-09T05:33:53.958Z,2.35
2018-12-09T05:36:22.090Z,2.42
2018-12-09T05:38:50.285Z,1.70
2018-12-09T05:41:18.478Z,2.25
2018-12-09T05:43:46.720Z,1.37
2018-12-09T05:46:14.874Z,1.82
2018-12-09T05:48:42.949Z,0.95
2018-12-09T05:51:11.212Z,1.00
2018-12-09T05:53:39.288Z,2.10
2018-12-09T05:56:07.429Z,2.10
2018-12-09T05:58:35.578Z,1.85
2018-12-09T06:01:03.747Z,10.48
2018-12-09T06:03:31.914Z,24.60
2018-12-09T06:06:00.049Z,30.37
2018-12-09T06:08:28.231Z,19.82
2018-12-09T06:10:56.306Z,15.53
2018-12-09T06:13:24.709Z,11.70
2018-12-09T06:15:52.860Z,17.87
2018-12-09T06:18:21.004Z,30.32
2018-12-09T06:20:49.169Z,19.90
2018-12-09T06:23:17.405Z,29.10
2018-12-09T06:25:45.875Z,14.40
2018-12-09T06:28:14.099Z,17.35
2018-12-09T06:30:42.261Z,9.95
2018-12-09T06:33:10.476Z,9.40
2018-12-09T06:35:38.702Z,8.55
2018-12-09T06:38:06.933Z,10.30
2018-12-09T06:40:35.141Z,8.58
2018-12-09T06:43:03.334Z,12.18
2018-12-09T06:45:31.517Z,13.32
2018-12-09T06:47:59.661Z,11.55
2018-12-09T06:50:28.077Z,8.60
2018-12-09T06:52:56.222Z,6.42
2018-12-09T06:55:24.423Z,10.90
2018-12-09T06:57:52.553Z,5.67
2018-12-09T07:00:20.879Z,4.40
2018-12-09T07:02:49.438Z,3.27
2018-12-09T07:05:17.679Z,5.55
2018-12-09T07:07:45.837Z,2.55
2018-12-09T07:10:13.986Z,4.75
2018-12-09T07:12:42.226Z,4.10
2018-12-09T07:15:10.445Z,9.20
2018-12-09T07:17:38.588Z,3.20
2018-12-09T07:20:08.010Z,4.45
2018-12-09T07:22:36.177Z,7.80
2018-12-09T07:25:06.839Z,4.40
2018-12-09T07:27:36.579Z,4.83
2018-12-09T07:30:05.430Z,7.05
2018-12-09T07:32:33.605Z,5.40
2018-12-09T07:35:01.752Z,7.22
2018-12-09T07:37:29.953Z,4.03
2018-12-09T07:39:58.510Z,4.33
2018-12-09T07:42:26.739Z,3.98
2018-12-09T07:44:54.982Z,3.45
2018-12-09T07:47:23.082Z,4.30
2018-12-09T07:49:51.317Z,3.65
2018-12-09T07:52:19.921Z,4.03
2018-12-09T07:54:48.079Z,4.35
2018-12-09T07:57:16.264Z,5.00
2018-12-09T07:59:44.461Z,5.17
2018-12-09T08:02:12.711Z,6.10
2018-12-09T08:04:40.873Z,7.17
2018-12-09T08:07:09.049Z,4.47
2018-12-09T08:09:38.124Z,5.08
2018-12-09T08:12:06.265Z,3.30
2018-12-09T08:14:34.328Z,2.50
2018-12-09T08:17:02.482Z,6.92
2018-12-09T08:19:30.560Z,4.22
2018-12-09T08:21:58.637Z,4.50
2018-12-09T08:24:26.808Z,7.58
2018-12-09T08:26:54.905Z,3.20
2018-12-09T08:29:22.990Z,3.35
2018-12-09T08:31:51.090Z,6.83
2018-12-09T08:34:19.162Z,6.90
2018-12-09T08:36:47.255Z,8.13
2018-12-09T08:39:15.348Z,7.22
2018-12-09T08:41:43.515Z,4.53
2018-12-09T08:44:11.625Z,7.72
2018-12-09T08:46:39.696Z,5.87
2018-12-09T08:49:07.837Z,8.13
2018-12-09T08:51:35.897Z,4.67
2018-12-09T08:54:04.049Z,4.85
2018-12-09T08:56:32.102Z,5.87
2018-12-09T08:59:00.197Z,5.85
2018-12-09T09:01:28.381Z,5.65
2018-12-09T09:03:56.632Z,6.45
2018-12-09T09:06:24.805Z,6.87
2018-12-09T09:08:53.631Z,8.93
2018-12-09T09:11:21.890Z,10.30
2018-12-09T09:13:50.083Z,5.65
2018-12-09T09:16:18.228Z,4.12
2018-12-09T09:18:46.320Z,4.33
2018-12-09T09:21:20.999Z,3.35
2018-12-09T09:23:49.073Z,3.70
2018-12-09T09:26:17.202Z,4.15
2018-12-09T09:28:45.262Z,2.80
2018-12-09T09:31:13.333Z,7.45
2018-12-09T09:33:41.413Z,5.15
2018-12-09T09:36:09.678Z,4.75
2018-12-09T09:38:37.850Z,5.00
2018-12-09T09:41:06.004Z,3.33
2018-12-09T09:43:34.149Z,5.62
2018-12-09T09:46:02.213Z,4.22
2018-12-09T09:48:30.459Z,6.05
2018-12-09T09:50:58.573Z,4.03
2018-12-09T09:53:26.753Z,5.05
2018-12-09T09:55:54.840Z,6.30
2018-12-09T09:58:22.904Z,5.22
2018-12-09T10:00:50.970Z,7.12
2018-12-09T10:03:25.721Z,2.92
2018-12-09T10:05:49.273Z,4.08
2018-12-09T10:08:17.329Z,5.22
2018-12-09T10:10:45.425Z,8.88
2018-12-09T10:13:13.650Z,3.58
2018-12-09T10:15:41.728Z,3.08
2018-12-09T10:18:09.800Z,1.32
2018-12-09T10:20:37.944Z,1.15
2018-12-09T10:23:06.062Z,1.00
2018-12-09T10:25:34.300Z,1.70
2018-12-09T10:28:02.405Z,3.27
2018-12-09T10:30:30.477Z,1.90
2018-12-09T10:32:58.657Z,3.08
2018-12-09T10:35:26.731Z,2.87
2018-12-09T10:37:54.822Z,2.58
2018-12-09T10:40:23.188Z,1.50
2018-12-09T10:42:51.340Z,1.42
2018-12-09T10:45:26.140Z,5.20
2018-12-09T10:47:54.223Z,4.67
2018-12-09T10:50:22.297Z,6.83
2018-12-09T10:52:50.463Z,1.75
2018-12-09T10:55:18.626Z,2.90
2018-12-09T10:57:46.729Z,1.60
2018-12-09T11:00:22.123Z,4.12
2018-12-09T11:02:50.432Z,2.12
2018-12-09T11:05:18.506Z,0.80
2018-12-09T11:07:46.667Z,1.42
2018-12-09T11:10:14.746Z,2.60
2018-12-09T11:12:42.913Z,4.20
2018-12-09T11:15:11.129Z,4.37
2018-12-09T11:17:39.415Z,8.75
2018-12-09T11:20:07.587Z,2.05
2018-12-09T11:22:36.074Z,2.55
2018-12-09T11:25:04.703Z,2.15
2018-12-09T11:27:32.816Z,3.40
2018-12-09T11:30:00.901Z,4.70
2018-12-09T11:32:29.055Z,8.83
2018-12-09T11:34:57.133Z,2.40
2018-12-09T11:37:25.296Z,6.00
2018-12-09T11:39:53.461Z,1.60
2018-12-09T11:42:21.598Z,1.32
2018-12-09T11:44:49.791Z,2.98
2018-12-09T11:47:18.018Z,4.90
2018-12-09T11:49:46.164Z,3.02
2018-12-09T11:52:14.258Z,4.53
2018-12-09T11:54:42.424Z,2.45
2018-12-09T11:57:10.932Z,4.33
2018-12-09T11:59:39.015Z,2.08
2018-12-09T12:02:07.111Z,4.72
2018-12-09T12:04:35.191Z,2.12
2018-12-09T12:07:03.281Z,1.00
2018-12-09T12:09:31.628Z,1.00
2018-12-09T12:11:59.699Z,1.00
2018-12-09T12:14:27.785Z,1.15
2018-12-09T12:16:55.867Z,0.60
2018-12-09T12:19:23.959Z,1.47
2018-12-09T12:21:52.069Z,1.60
2018-12-09T12:24:20.952Z,0.90
2018-12-09T12:26:49.402Z,0.80
2018-12-09T12:29:17.506Z,0.85
2018-12-09T12:31:45.667Z,1.32
2018-12-09T12:34:13.870Z,0.85
2018-12-09T12:36:42.089Z,1.37
2018-12-09T12:39:10.543Z,1.60
2018-12-09T12:41:40.390Z,0.75
2018-12-09T12:44:08.733Z,2.55
2018-12-09T12:46:37.203Z,1.55
2018-12-09T12:49:05.561Z,0.98
2018-12-09T12:51:33.855Z,1.22
2018-12-09T12:54:02.211Z,1.85
2018-12-09T12:56:30.410Z,1.30
2018-12-09T12:58:58.590Z,0.75
2018-12-09T13:01:27.505Z,0.90
2018-12-09T13:03:55.685Z,2.83
2018-12-09T13:06:24.250Z,1.40
2018-12-09T13:08:52.568Z,2.95
2018-12-09T13:11:20.796Z,1.32
2018-12-09T13:13:49.084Z,1.00
2018-12-09T13:16:17.768Z,0.90
2018-12-09T13:18:46.080Z,1.32
2018-12-09T13:21:14.452Z,0.98
2018-12-09T13:23:42.735Z,1.47
2018-12-09T13:26:10.919Z,1.85
2018-12-09T13:29:08.486Z,1.32
2018-12-09T13:31:36.875Z,0.90
2018-12-09T13:34:09.618Z,0.90
2018-12-09T13:39:32.823Z,0.85
2018-12-09T13:42:14.724Z,1.72
2018-12-09T13:47:50.872Z,0.70
2018-12-09T13:50:29.910Z,0.98
2018-12-09T13:53:09.637Z,0.60
2018-12-09T13:58:42.330Z,2.27
2018-12-09T14:01:30.125Z,1.55
2018-12-09T14:04:12.759Z,0.85
2018-12-09T14:10:08.136Z,0.80
2018-12-09T14:26:19.689Z,3.37
2018-12-09T14:31:56.673Z,1.10
2018-12-09T14:34:45.977Z,2.08
2018-12-09T14:37:22.981Z,1.05
2018-12-09T15:13:44.099Z,0.70
2018-12-09T15:19:37.214Z,1.02
2018-12-09T15:22:17.347Z,2.80
2018-12-09T15:24:47.450Z,0.70
2018-12-09T15:27:24.255Z,1.05
2018-12-09T15:29:55.825Z,2.08
2018-12-09T15:32:27.647Z,2.12
2018-12-09T15:34:55.714Z,2.27
2018-12-09T15:37:23.821Z,1.10
2018-12-09T15:39:51.965Z,2.22
2018-12-09T15:42:20.022Z,2.35
2018-12-09T15:44:48.109Z,1.55
2018-12-09T15:47:16.269Z,1.27
2018-12-09T15:49:44.377Z,2.15
2018-12-09T15:52:12.476Z,1.40
2018-12-09T15:54:40.553Z,4.65
2018-12-09T15:57:08.644Z,1.50
2018-12-09T15:59:36.729Z,2.35
2018-12-09T16:02:05.749Z,1.52
2018-12-09T16:04:33.823Z,1.27
2018-12-09T16:07:01.981Z,0.60
2018-12-09T16:09:30.078Z,2.50
2018-12-09T16:11:58.849Z,1.60
2018-12-09T16:14:27.037Z,1.00
2018-12-09T16:16:55.805Z,1.27
2018-12-09T16:19:23.890Z,1.87
2018-12-09T16:21:52.032Z,0.90
2018-12-09T16:24:20.194Z,1.10
2018-12-09T16:26:48.297Z,2.17
2018-12-09T16:29:17.926Z,2.90
2018-12-09T16:31:46.388Z,2.52
2018-12-09T16:34:14.452Z,4.47
2018-12-09T16:36:42.570Z,2.35
2018-12-09T16:39:10.738Z,1.15
2018-12-09T16:41:38.913Z,2.45
2018-12-09T16:44:07.145Z,3.80
2018-12-09T16:46:35.289Z,2.08
2018-12-09T16:49:03.379Z,1.80
2018-12-09T16:51:36.761Z,2.00
2018-12-09T16:54:14.382Z,1.27
2018-12-09T16:56:48.773Z,3.00
2018-12-09T16:59:23.623Z,2.00
2018-12-09T17:01:55.936Z,2.77
2018-12-09T17:04:33.256Z,4.30
2018-12-09T17:07:11.785Z,1.95
2018-12-09T17:12:48.782Z,6.15
2018-12-09T17:15:30.142Z,3.85
2018-12-09T17:18:22.111Z,4.92
2018-12-09T17:34:42.721Z,3.60
2018-12-09T17:37:23.557Z,3.58
2018-12-09T17:53:53.970Z,5.00
2018-12-09T17:56:32.769Z,5.70
2018-12-09T18:19:49.595Z,4.80
2018-12-09T18:22:20.350Z,3.77
2018-12-09T18:31:10.487Z,4.25
2018-12-09T18:33:57.067Z,4.65
2018-12-09T18:36:41.321Z,8.98
2018-12-09T18:39:16.818Z,3.60
2018-12-09T18:41:47.899Z,6.15
2018-12-09T18:44:26.473Z,8.38
2018-12-09T18:47:00.492Z,5.42
2018-12-09T18:49:43.555Z,5.50
2018-12-09T18:52:19.859Z,2.37
2018-12-09T18:54:56.774Z,4.60
2018-12-09T18:57:25.565Z,9.58
2018-12-09T18:59:55.208Z,4.22
2018-12-09T19:02:25.461Z,5.10
2018-12-09T19:04:54.033Z,7.60
2018-12-09T19:07:24.269Z,4.40
2018-12-09T19:09:54.855Z,5.47
2018-12-09T19:12:24.328Z,5.47
2018-12-09T19:14:56.835Z,3.50
2018-12-09T19:17:34.106Z,3.10
2018-12-09T19:20:03.995Z,4.42
2018-12-09T19:22:36.100Z,7.17
2018-12-09T19:25:05.252Z,4.42
2018-12-09T19:27:33.552Z,4.28
2018-12-09T19:30:06.244Z,4.30
2018-12-09T19:32:40.331Z,6.37
2018-12-09T19:35:11.764Z,6.55
2018-12-09T19:37:42.817Z,11.68
2018-12-09T19:40:15.735Z,4.70
2018-12-09T19:42:45.095Z,4.45
2018-12-09T19:45:14.538Z,2.15
2018-12-09T19:47:46.225Z,3.95
2018-12-09T19:50:15.648Z,8.73
2018-12-09T19:52:45.168Z,7.75
2018-12-09T19:55:20.523Z,5.20
2018-12-09T19:58:01.061Z,3.45
2018-12-09T20:00:32.638Z,5.22
2018-12-09T20:03:07.475Z,4.10
2018-12-09T20:05:36.284Z,5.12
2018-12-09T20:08:07.318Z,4.55
2018-12-09T20:10:38.019Z,7.65
2018-12-09T20:13:12.017Z,11.90
2018-12-09T20:15:41.916Z,7.65
2018-12-09T20:18:12.597Z,7.28
2018-12-09T20:20:44.610Z,3.60
2018-12-09T20:23:21.248Z,11.53
2018-12-09T20:25:52.079Z,5.58
2018-12-09T20:28:22.982Z,3.67
2018-12-09T20:30:58.340Z,4.00
2018-12-09T20:33:28.731Z,5.80
2018-12-09T20:36:05.727Z,3.42
2018-12-09T20:38:37.781Z,8.68
2018-12-09T20:41:10.276Z,4.83
2018-12-09T20:43:43.472Z,8.25
2018-12-09T20:46:14.538Z,8.35
2018-12-09T20:48:45.991Z,3.87
2018-12-09T20:51:19.456Z,6.53
2018-12-09T20:53:50.792Z,6.20
2018-12-09T20:56:25.072Z,3.92
2018-12-09T20:58:55.851Z,8.58
2018-12-09T21:01:29.910Z,10.85
2018-12-09T21:04:00.414Z,4.62
2018-12-09T21:06:32.739Z,9.75
2018-12-09T21:09:01.971Z,9.08
2018-12-09T21:11:36.257Z,10.70
2018-12-09T21:14:04.778Z,7.78
2018-12-09T21:16:33.209Z,6.62
2018-12-09T21:19:03.287Z,8.93
2018-12-09T21:21:46.938Z,3.87
2018-12-09T21:24:25.900Z,6.30
2018-12-09T21:26:59.228Z,8.63
2018-12-09T21:29:33.805Z,6.03
2018-12-09T21:32:08.816Z,10.38
2018-12-09T21:34:38.768Z,4.22
2018-12-09T21:37:09.981Z,5.40
2018-12-09T21:39:43.458Z,5.37
2018-12-09T21:42:13.158Z,4.72
2018-12-09T21:44:42.465Z,6.70
2018-12-09T21:47:11.366Z,6.30
2018-12-09T21:49:41.075Z,6.40
2018-12-09T21:52:10.653Z,7.85
2018-12-09T21:54:40.115Z,8.10
2018-12-09T21:57:11.026Z,8.08
2018-12-09T21:59:52.488Z,4.47
2018-12-09T22:02:24.919Z,4.00
2018-12-09T22:05:00.978Z,7.67
2018-12-09T22:07:31.481Z,5.45
2018-12-09T22:10:05.386Z,9.75
2018-12-09T22:12:35.814Z,8.90
2018-12-09T22:15:06.126Z,4.20
2018-12-09T22:17:38.085Z,4.40
2018-12-09T22:20:07.281Z,7.95
2018-12-09T22:22:36.893Z,9.73
2018-12-09T22:25:06.856Z,3.35
2018-12-09T22:30:58.945Z,4.58
2018-12-09T22:33:32.661Z,6.47
2018-12-09T22:36:04.274Z,4.47
2018-12-09T22:38:34.348Z,6.10
2018-12-09T22:41:07.891Z,7.80
2018-12-09T22:43:41.858Z,8.53
2018-12-09T22:46:10.398Z,9.03
2018-12-09T22:48:39.054Z,4.85
2018-12-09T22:51:08.559Z,6.67
2018-12-09T22:53:42.215Z,8.83
2018-12-09T22:56:13.012Z,8.80
2018-12-09T22:58:43.984Z,6.22
2018-12-09T23:01:18.997Z,13.93
2018-12-09T23:03:55.972Z,9.53
2018-12-09T23:06:26.573Z,9.53
2018-12-09T23:08:57.359Z,12.10
2018-12-09T23:11:26.944Z,7.75
2018-12-09T23:13:56.459Z,5.95
2018-12-09T23:16:26.193Z,9.75
2018-12-09T23:18:55.244Z,15.30
2018-12-09T23:21:23.485Z,5.78
2018-12-09T23:23:55.516Z,9.90
2018-12-09T23:26:26.118Z,5.37
2018-12-09T23:28:56.336Z,10.20
2018-12-09T23:31:25.581Z,11.80
2018-12-09T23:33:57.161Z,6.87
2018-12-09T23:36:26.015Z,12.88
2018-12-09T23:38:55.532Z,13.32
2018-12-09T23:41:25.576Z,6.42
2018-12-09T23:43:55.808Z,9.65
2018-12-09T23:46:24.979Z,9.05
2018-12-09T23:49:01.209Z,6.78
2018-12-09T23:51:30.555Z,4.90
2018-12-09T23:54:04.891Z,6.92
2018-12-09T23:56:34.798Z,7.53
2018-12-09T23:59:09.770Z,8.78
